createdAt,value
2022-11-20T00:00:43.446Z,66.90
2022-11-20T00:01:43.427Z,66.80
2022-11-20T00:02:43.340Z,64.20
2022-11-20T00:03:43.361Z,61.70
2022-11-20T00:04:43.241Z,71.30
2022-11-20T00:05:43.174Z,62.00
2022-11-20T00:06:43.133Z,68.30
2022-11-20T00:07:43.073Z,65.80
2022-11-20T00:08:43.016Z,64.60
2022-11-20T00:09:43.097Z,71.00
2022-11-20T00:10:42.915Z,63.10
2022-11-20T00:11:42.856Z,69.30
2022-11-20T00:12:42.803Z,66.30
2022-11-20T00:13:42.741Z,68.00
2022-11-20T00:14:42.701Z,64.00
2022-11-20T00:15:42.639Z,68.20
2022-11-20T00:16:42.595Z,60.90
2022-11-20T00:17:42.533Z,62.20
2022-11-20T00:18:42.593Z,69.00
2022-11-20T00:19:42.423Z,68.70
2022-11-20T00:20:42.399Z,58.40
2022-11-20T00:21:42.424Z,59.70
2022-11-20T00:22:42.277Z,61.40
2022-11-20T00:23:42.210Z,66.00
2022-11-20T00:24:43.267Z,65.30
2022-11-20T00:25:42.517Z,65.10
2022-11-20T00:26:42.086Z,68.70
2022-11-20T00:27:42.175Z,64.90
2022-11-20T00:28:41.968Z,70.20
2022-11-20T00:29:41.899Z,68.00
2022-11-20T00:30:41.878Z,72.80
2022-11-20T00:31:41.808Z,67.90
2022-11-20T00:32:41.803Z,73.00
2022-11-20T00:33:41.705Z,70.00
2022-11-20T00:34:41.713Z,67.40
2022-11-20T00:35:41.600Z,64.00
2022-11-20T00:36:41.560Z,67.90
2022-11-20T00:37:41.473Z,64.70
2022-11-20T00:38:41.427Z,64.30
2022-11-20T00:39:41.396Z,68.60
2022-11-20T00:40:41.325Z,65.00
2022-11-20T00:41:41.219Z,64.40
2022-11-20T00:42:41.176Z,67.90
2022-11-20T00:43:41.103Z,64.70
2022-11-20T00:44:41.076Z,74.40
2022-11-20T00:45:40.982Z,75.10
2022-11-20T00:46:40.944Z,67.60
2022-11-20T00:47:40.874Z,66.70
2022-11-20T00:48:40.872Z,67.90
2022-11-20T00:49:40.792Z,65.00
2022-11-20T00:50:40.741Z,67.80
2022-11-20T00:51:40.656Z,60.00
2022-11-20T00:52:40.584Z,64.60
2022-11-20T00:53:40.577Z,68.60
2022-11-20T00:54:40.458Z,65.20
2022-11-20T00:55:40.365Z,59.10
2022-11-20T00:56:40.375Z,68.20
2022-11-20T00:57:40.260Z,64.30
2022-11-20T00:58:40.222Z,61.80
2022-11-20T00:59:40.150Z,54.40
2022-11-20T01:02:33.926Z,59.40
2022-11-20T01:03:34.039Z,57.40
2022-11-20T01:04:33.853Z,59.80
2022-11-20T01:05:33.775Z,55.90
2022-11-20T01:06:33.780Z,54.20
2022-11-20T01:07:33.682Z,56.10
2022-11-20T01:08:33.636Z,53.30
2022-11-20T01:09:33.577Z,59.90
2022-11-20T01:10:33.515Z,54.40
2022-11-20T01:11:33.435Z,53.00
2022-11-20T01:12:33.390Z,53.70
2022-11-20T01:13:33.331Z,50.20
2022-11-20T01:14:33.247Z,49.70
2022-11-20T01:15:33.194Z,54.90
2022-11-20T01:16:33.114Z,54.40
2022-11-20T01:17:33.028Z,55.40
2022-11-20T01:18:32.969Z,53.50
2022-11-20T01:19:32.871Z,55.50
2022-11-20T01:20:32.832Z,52.60
2022-11-20T01:21:32.739Z,56.10
2022-11-20T01:22:32.674Z,52.20
2022-11-20T01:23:32.589Z,51.00
2022-11-20T01:24:32.555Z,49.30
2022-11-20T01:25:32.448Z,49.20
2022-11-20T01:26:32.374Z,51.60
2022-11-20T01:27:32.318Z,51.60
2022-11-20T01:28:32.272Z,50.40
2022-11-20T01:29:32.162Z,49.60
2022-11-20T01:30:32.128Z,47.60
2022-11-20T01:31:32.032Z,49.30
2022-11-20T01:32:32.004Z,66.40
2022-11-20T01:33:31.911Z,51.30
2022-11-20T01:34:31.855Z,51.50
2022-11-20T01:35:31.923Z,52.20
2022-11-20T01:36:31.734Z,49.00
2022-11-20T01:37:31.643Z,52.60
2022-11-20T01:38:31.590Z,48.70
2022-11-20T01:39:31.602Z,50.30
2022-11-20T01:40:31.519Z,47.90
2022-11-20T01:41:31.380Z,46.40
2022-11-20T01:42:31.327Z,52.10
2022-11-20T01:43:31.244Z,50.50
2022-11-20T01:44:31.228Z,51.70
2022-11-20T01:46:36.062Z,46.10
2022-11-20T01:47:35.988Z,54.40
2022-11-20T01:48:35.962Z,55.60
2022-11-20T01:49:35.878Z,50.30
2022-11-20T01:50:35.807Z,48.30
2022-11-20T01:51:35.758Z,46.60
2022-11-20T01:52:35.780Z,48.90
2022-11-20T01:53:35.635Z,53.60
2022-11-20T01:54:35.534Z,53.50
2022-11-20T01:55:35.500Z,50.40
2022-11-20T01:56:35.400Z,50.10
2022-11-20T01:57:35.501Z,51.50
2022-11-20T01:58:35.422Z,56.20
2022-11-20T01:59:35.240Z,47.40
2022-11-20T02:00:35.156Z,52.80
2022-11-20T02:01:35.173Z,48.70
2022-11-20T02:02:35.039Z,47.00
2022-11-20T02:03:34.977Z,54.20
2022-11-20T02:04:34.980Z,53.70
2022-11-20T02:05:34.855Z,48.70
2022-11-20T02:06:34.791Z,47.80
2022-11-20T02:07:39.652Z,50.60
2022-11-20T02:08:39.644Z,48.10
2022-11-20T02:09:39.663Z,50.10
2022-11-20T02:10:39.525Z,45.80
2022-11-20T02:11:39.426Z,50.80
2022-11-20T02:12:39.398Z,52.70
2022-11-20T02:13:39.319Z,53.40
2022-11-20T02:14:39.279Z,48.20
2022-11-20T02:15:39.307Z,50.10
2022-11-20T02:16:39.162Z,52.30
2022-11-20T02:17:39.076Z,56.00
2022-11-20T02:18:39.062Z,48.70
2022-11-20T02:19:38.975Z,52.90
2022-11-20T02:20:38.914Z,50.20
2022-11-20T02:21:38.978Z,50.50
2022-11-20T02:22:38.787Z,53.00
2022-11-20T02:23:38.703Z,51.40
2022-11-20T02:24:38.667Z,51.40
2022-11-20T02:25:38.586Z,52.60
2022-11-20T02:26:38.988Z,53.80
2022-11-20T02:27:38.577Z,50.90
2022-11-20T02:28:38.423Z,49.90
2022-11-20T02:29:38.431Z,56.80
2022-11-20T02:30:38.290Z,59.00
2022-11-20T02:31:38.206Z,55.40
2022-11-20T02:32:38.149Z,55.20
2022-11-20T02:33:38.200Z,53.40
2022-11-20T02:34:38.022Z,54.50
2022-11-20T02:35:37.943Z,63.00
2022-11-20T02:36:37.884Z,52.20
2022-11-20T02:37:37.807Z,50.00
2022-11-20T02:38:37.770Z,57.00
2022-11-20T02:39:37.842Z,53.00
2022-11-20T02:40:37.787Z,47.80
2022-11-20T02:41:37.543Z,50.60
2022-11-20T02:42:37.517Z,55.30
2022-11-20T02:43:37.427Z,56.60
2022-11-20T02:44:37.399Z,53.80
2022-11-20T02:45:37.318Z,52.10
2022-11-20T02:46:37.271Z,52.50
2022-11-20T02:47:37.170Z,52.20
2022-11-20T02:48:37.153Z,51.00
2022-11-20T02:49:37.078Z,49.70
2022-11-20T02:50:37.035Z,53.30
2022-11-20T02:51:37.059Z,54.10
2022-11-20T02:52:36.909Z,49.30
2022-11-20T02:53:36.820Z,52.90
2022-11-20T02:54:36.810Z,51.30
2022-11-20T02:55:36.699Z,54.50
2022-11-20T02:56:36.681Z,52.40
2022-11-20T02:57:36.612Z,51.80
2022-11-20T02:58:36.535Z,52.10
2022-11-20T02:59:36.441Z,50.70
2022-11-20T03:00:36.429Z,52.40
2022-11-20T03:01:36.347Z,53.50
2022-11-20T03:02:36.406Z,50.80
2022-11-20T03:03:36.221Z,53.30
2022-11-20T03:04:36.117Z,52.70
2022-11-20T03:05:36.031Z,50.90
2022-11-20T03:06:35.983Z,48.50
2022-11-20T03:07:35.948Z,48.60
2022-11-20T03:08:35.852Z,52.00
2022-11-20T03:09:35.766Z,54.40
2022-11-20T03:10:35.698Z,53.10
2022-11-20T03:11:35.612Z,55.60
2022-11-20T03:12:35.561Z,50.90
2022-11-20T03:13:35.593Z,50.70
2022-11-20T03:14:35.410Z,49.90
2022-11-20T03:15:35.371Z,51.00
2022-11-20T03:16:35.304Z,48.90
2022-11-20T03:17:35.232Z,44.20
2022-11-20T03:18:35.163Z,47.50
2022-11-20T03:19:35.071Z,48.70
2022-11-20T03:20:35.034Z,44.90
2022-11-20T03:21:35.059Z,50.10
2022-11-20T03:22:34.895Z,46.10
2022-11-20T03:23:34.805Z,45.30
2022-11-20T03:24:34.853Z,50.90
2022-11-20T03:25:34.671Z,44.30
2022-11-20T03:26:34.618Z,45.00
2022-11-20T03:27:34.637Z,45.00
2022-11-20T03:28:34.487Z,44.90
2022-11-20T03:29:34.404Z,49.30
2022-11-20T03:30:34.374Z,45.30
2022-11-20T03:31:34.291Z,48.70
2022-11-20T03:32:34.247Z,49.00
2022-11-20T03:33:34.200Z,47.70
2022-11-20T03:34:34.139Z,44.90
2022-11-20T03:35:34.165Z,46.70
2022-11-20T03:36:34.001Z,46.80
2022-11-20T03:37:33.887Z,43.30
2022-11-20T03:38:33.884Z,47.70
2022-11-20T03:39:33.850Z,49.40
2022-11-20T03:40:33.711Z,49.70
2022-11-20T03:41:33.623Z,45.10
2022-11-20T03:42:33.560Z,45.90
2022-11-20T03:43:33.471Z,43.70
2022-11-20T03:44:33.424Z,43.40
2022-11-20T03:45:33.334Z,45.80
2022-11-20T03:46:33.304Z,42.90
2022-11-20T03:47:33.186Z,45.80
2022-11-20T03:48:33.145Z,44.80
2022-11-20T03:49:33.049Z,45.60
2022-11-20T03:50:37.041Z,47.20
2022-11-20T03:51:36.947Z,44.90
2022-11-20T03:52:36.856Z,42.20
2022-11-20T03:53:36.793Z,47.40
2022-11-20T03:54:36.700Z,49.50
2022-11-20T03:55:36.670Z,46.00
2022-11-20T03:56:36.622Z,43.60
2022-11-20T03:57:36.509Z,48.60
2022-11-20T03:58:36.418Z,43.60
2022-11-20T03:59:36.381Z,41.70
2022-11-20T04:00:36.314Z,42.20
2022-11-20T04:01:36.353Z,45.40
2022-11-20T04:02:36.211Z,46.00
2022-11-20T04:03:36.140Z,46.10
2022-11-20T04:04:36.060Z,44.00
2022-11-20T04:05:36.038Z,42.10
2022-11-20T04:06:35.941Z,44.50
2022-11-20T04:07:35.965Z,46.10
2022-11-20T04:08:35.815Z,42.70
2022-11-20T04:09:35.765Z,43.00
2022-11-20T04:10:35.732Z,43.20
2022-11-20T04:11:35.672Z,47.20
2022-11-20T04:12:35.568Z,38.80
2022-11-20T04:13:35.523Z,45.90
2022-11-20T04:14:35.486Z,42.40
2022-11-20T04:15:38.339Z,43.80
2022-11-20T04:16:35.304Z,41.80
2022-11-20T04:17:35.256Z,42.80
2022-11-20T04:20:29.014Z,43.60
2022-11-20T04:21:28.990Z,43.80
2022-11-20T04:22:28.905Z,39.80
2022-11-20T04:23:29.069Z,37.90
2022-11-20T04:24:28.744Z,40.40
2022-11-20T04:25:28.692Z,41.90
2022-11-20T04:26:28.618Z,40.20
2022-11-20T04:27:28.548Z,39.00
2022-11-20T04:28:28.459Z,44.50
2022-11-20T04:29:28.397Z,41.30
2022-11-20T04:30:28.313Z,41.80
2022-11-20T04:31:28.302Z,39.80
2022-11-20T04:32:28.142Z,38.60
2022-11-20T04:33:32.680Z,38.40
2022-11-20T04:34:28.023Z,39.70
2022-11-20T04:35:27.963Z,44.50
2022-11-20T04:36:27.996Z,38.70
2022-11-20T04:37:27.853Z,42.60
2022-11-20T04:38:27.761Z,38.20
2022-11-20T04:39:27.724Z,41.60
2022-11-20T04:40:27.641Z,42.30
2022-11-20T04:41:32.501Z,40.40
2022-11-20T04:42:32.520Z,45.10
2022-11-20T04:43:32.440Z,40.70
2022-11-20T04:44:32.394Z,45.50
2022-11-20T04:45:32.302Z,39.90
2022-11-20T04:46:32.255Z,44.90
2022-11-20T04:47:32.203Z,39.80
2022-11-20T04:48:32.161Z,40.70
2022-11-20T04:49:32.130Z,40.50
2022-11-20T04:50:32.417Z,39.20
2022-11-20T04:51:31.938Z,39.90
2022-11-20T04:52:32.031Z,41.40
2022-11-20T04:53:31.897Z,37.00
2022-11-20T04:54:31.756Z,41.90
2022-11-20T04:55:31.682Z,43.30
2022-11-20T04:56:31.615Z,38.30
2022-11-20T04:57:31.516Z,43.80
2022-11-20T04:58:31.515Z,41.50
2022-11-20T04:59:31.539Z,38.10
2022-11-20T05:00:31.356Z,40.10
2022-11-20T05:01:31.363Z,44.00
2022-11-20T05:02:31.337Z,41.90
2022-11-20T05:03:31.148Z,42.60
2022-11-20T05:04:31.141Z,43.50
2022-11-20T05:05:31.040Z,44.70
2022-11-20T05:06:30.985Z,36.20
2022-11-20T05:07:30.923Z,42.20
2022-11-20T05:08:30.870Z,40.50
2022-11-20T05:09:30.761Z,41.70
2022-11-20T05:10:31.242Z,42.30
2022-11-20T05:11:30.684Z,40.90
2022-11-20T05:12:30.599Z,40.50
2022-11-20T05:13:36.497Z,37.80
2022-11-20T05:14:36.466Z,37.50
2022-11-20T05:15:36.339Z,39.30
2022-11-20T05:16:36.438Z,37.40
2022-11-20T05:17:36.222Z,40.50
2022-11-20T05:18:36.171Z,37.40
2022-11-20T05:19:36.091Z,40.60
2022-11-20T05:20:36.039Z,35.40
2022-11-20T05:21:35.949Z,38.50
2022-11-20T05:22:36.001Z,36.50
2022-11-20T05:23:35.833Z,39.50
2022-11-20T05:24:35.803Z,35.70
2022-11-20T05:25:35.702Z,37.30
2022-11-20T05:26:36.257Z,42.60
2022-11-20T05:27:40.672Z,38.70
2022-11-20T05:28:40.501Z,41.40
2022-11-20T05:29:40.409Z,42.20
2022-11-20T05:30:40.365Z,36.40
2022-11-20T05:31:40.306Z,40.10
2022-11-20T05:32:40.240Z,35.20
2022-11-20T05:33:40.635Z,34.00
2022-11-20T05:34:40.137Z,37.50
2022-11-20T05:35:40.048Z,37.80
2022-11-20T05:36:39.972Z,38.50
2022-11-20T05:37:39.901Z,35.40
2022-11-20T05:38:39.856Z,40.00
2022-11-20T05:39:39.881Z,37.50
2022-11-20T05:40:39.713Z,39.30
2022-11-20T05:41:39.649Z,37.40
2022-11-20T05:42:39.613Z,38.80
2022-11-20T05:43:39.512Z,38.90
2022-11-20T05:44:39.479Z,35.80
2022-11-20T05:45:39.486Z,39.00
2022-11-20T05:46:39.356Z,41.30
2022-11-20T05:47:39.279Z,38.40
2022-11-20T05:48:39.231Z,42.30
2022-11-20T05:49:39.164Z,41.00
2022-11-20T05:50:43.082Z,43.70
2022-11-20T05:51:43.067Z,41.70
2022-11-20T05:52:42.965Z,40.70
2022-11-20T05:53:48.015Z,41.20
2022-11-20T05:54:42.841Z,40.60
2022-11-20T05:55:42.833Z,44.50
2022-11-20T05:56:42.730Z,40.90
2022-11-20T05:57:47.563Z,41.80
2022-11-20T05:58:47.581Z,43.00
2022-11-20T05:59:47.512Z,39.20
2022-11-20T06:00:47.452Z,39.10
2022-11-20T06:01:47.458Z,42.40
2022-11-20T06:02:47.373Z,43.90
2022-11-20T06:03:47.234Z,43.00
2022-11-20T06:04:47.202Z,42.60
2022-11-20T06:05:47.199Z,41.70
2022-11-20T06:06:47.043Z,43.30
2022-11-20T06:07:47.012Z,41.10
2022-11-20T06:08:46.946Z,39.10
2022-11-20T06:09:46.873Z,41.30
2022-11-20T06:10:46.836Z,38.40
2022-11-20T06:11:46.742Z,38.30
2022-11-20T06:12:46.694Z,41.70
2022-11-20T06:13:46.768Z,42.60
2022-11-20T06:14:46.598Z,38.60
2022-11-20T06:15:46.490Z,39.10
2022-11-20T06:16:46.562Z,34.60
2022-11-20T06:17:46.418Z,35.10
2022-11-20T06:18:46.355Z,37.90
2022-11-20T06:19:46.357Z,37.90
2022-11-20T06:20:46.215Z,36.40
2022-11-20T06:21:46.116Z,40.90
2022-11-20T06:22:46.104Z,42.70
2022-11-20T06:23:46.298Z,36.40
2022-11-20T06:24:50.982Z,37.30
2022-11-20T06:25:50.880Z,37.50
2022-11-20T06:26:50.933Z,37.30
2022-11-20T06:27:50.773Z,37.50
2022-11-20T06:28:50.684Z,35.80
2022-11-20T06:29:50.661Z,36.60
2022-11-20T06:30:50.603Z,38.30
2022-11-20T06:31:50.517Z,35.60
2022-11-20T06:32:50.416Z,41.10
2022-11-20T06:33:50.370Z,35.10
2022-11-20T06:34:50.292Z,38.80
2022-11-20T06:35:52.411Z,38.50
2022-11-20T06:36:50.212Z,36.20
2022-11-20T06:37:55.103Z,38.30
2022-11-20T06:38:55.020Z,38.70
2022-11-20T06:39:54.943Z,40.40
2022-11-20T06:40:54.888Z,43.10
2022-11-20T06:41:58.728Z,39.00
2022-11-20T06:42:59.663Z,40.50
2022-11-20T06:43:59.706Z,35.70
2022-11-20T06:44:59.648Z,40.50
2022-11-20T06:45:59.585Z,38.50
2022-11-20T06:46:59.613Z,38.60
2022-11-20T06:47:59.569Z,37.50
2022-11-20T06:48:59.387Z,37.00
2022-11-20T06:49:59.308Z,36.40
2022-11-20T06:50:59.230Z,35.60
2022-11-20T06:51:59.187Z,36.90
2022-11-20T06:52:59.122Z,38.60
2022-11-20T06:53:59.082Z,35.20
2022-11-20T06:55:03.909Z,37.20
2022-11-20T06:56:03.905Z,36.60
2022-11-20T06:57:03.827Z,39.80
2022-11-20T06:58:03.955Z,36.10
2022-11-20T06:59:03.705Z,42.50
2022-11-20T07:00:03.645Z,40.10
2022-11-20T07:01:03.618Z,43.40
2022-11-20T07:02:03.941Z,39.10
2022-11-20T07:03:03.450Z,37.10
2022-11-20T07:04:03.406Z,39.20
2022-11-20T07:05:03.308Z,37.90
2022-11-20T07:06:03.277Z,43.30
2022-11-20T07:07:03.190Z,42.50
2022-11-20T07:08:03.128Z,38.40
2022-11-20T07:09:03.173Z,40.60
2022-11-20T07:10:03.148Z,39.60
2022-11-20T07:11:02.910Z,40.20
2022-11-20T07:12:02.855Z,41.90
2022-11-20T07:13:02.786Z,40.60
2022-11-20T07:14:02.725Z,43.40
2022-11-20T07:15:02.625Z,45.20
2022-11-20T07:16:02.666Z,46.30
2022-11-20T07:17:02.486Z,41.60
2022-11-20T07:18:02.448Z,43.90
2022-11-20T07:19:02.357Z,41.10
2022-11-20T07:20:02.322Z,39.90
2022-11-20T07:21:02.194Z,42.40
2022-11-20T07:22:02.246Z,41.30
2022-11-20T07:23:02.070Z,41.80
2022-11-20T07:24:02.022Z,44.80
2022-11-20T07:25:01.934Z,40.80
2022-11-20T07:26:01.866Z,42.40
2022-11-20T07:27:01.806Z,44.80
2022-11-20T07:28:01.844Z,44.30
2022-11-20T07:29:01.640Z,41.60
2022-11-20T07:30:01.603Z,39.80
2022-11-20T07:31:01.538Z,44.60
2022-11-20T07:32:01.480Z,43.50
2022-11-20T07:33:07.416Z,42.20
2022-11-20T07:34:07.340Z,39.60
2022-11-20T07:35:07.239Z,43.00
2022-11-20T07:36:07.204Z,42.50
2022-11-20T07:37:10.346Z,41.60
2022-11-20T07:38:07.065Z,45.10
2022-11-20T07:39:07.091Z,44.10
2022-11-20T07:40:06.911Z,43.50
2022-11-20T07:41:07.001Z,43.30
2022-11-20T07:42:06.784Z,41.50
2022-11-20T07:43:06.723Z,43.80
2022-11-20T07:44:06.673Z,43.50
2022-11-20T07:45:07.037Z,46.50
2022-11-20T07:46:06.544Z,45.30
2022-11-20T07:47:06.461Z,43.00
2022-11-20T07:48:06.407Z,45.00
2022-11-20T07:49:06.339Z,44.00
2022-11-20T07:50:11.174Z,46.60
2022-11-20T07:51:11.230Z,45.60
2022-11-20T07:52:11.132Z,47.80
2022-11-20T07:53:11.057Z,41.80
2022-11-20T07:54:10.999Z,45.00
2022-11-20T07:55:15.944Z,46.70
2022-11-20T07:56:15.856Z,47.70
2022-11-20T07:57:15.768Z,44.50
2022-11-20T07:58:15.733Z,46.90
2022-11-20T07:59:15.657Z,44.70
2022-11-20T08:00:20.536Z,47.20
2022-11-20T08:01:25.545Z,45.30
2022-11-20T08:02:25.479Z,48.90
2022-11-20T08:03:25.814Z,48.80
2022-11-20T08:04:25.354Z,47.00
2022-11-20T08:05:26.362Z,43.20
2022-11-20T08:06:26.242Z,48.10
2022-11-20T08:07:26.214Z,48.80
2022-11-20T08:08:26.096Z,47.30
2022-11-20T08:09:26.018Z,47.70
2022-11-20T08:10:31.894Z,50.20
2022-11-20T08:11:36.839Z,51.00
2022-11-20T08:12:36.844Z,46.60
2022-11-20T08:13:36.750Z,49.00
2022-11-20T08:14:36.716Z,45.40
2022-11-20T08:15:36.639Z,44.80
2022-11-20T08:16:36.615Z,47.30
2022-11-20T08:17:36.495Z,45.50
2022-11-20T08:18:36.469Z,45.10
2022-11-20T08:19:36.396Z,44.80
2022-11-20T08:20:36.360Z,47.30
2022-11-20T08:21:38.355Z,46.20
2022-11-20T08:22:36.280Z,46.80
2022-11-20T08:23:36.215Z,49.50
2022-11-20T08:24:36.153Z,48.50
2022-11-20T08:25:36.090Z,48.00
2022-11-20T08:26:36.033Z,45.70
2022-11-20T08:27:38.816Z,48.30
2022-11-20T08:28:36.005Z,43.50
2022-11-20T08:29:35.847Z,48.90
2022-11-20T08:30:41.709Z,53.40
2022-11-20T08:31:41.748Z,46.80
2022-11-20T08:32:41.814Z,47.70
2022-11-20T08:33:41.616Z,45.80
2022-11-20T08:34:41.555Z,44.60
2022-11-20T08:35:41.531Z,48.30
2022-11-20T08:36:41.464Z,46.10
2022-11-20T08:37:41.417Z,52.10
2022-11-20T08:38:41.380Z,48.60
2022-11-20T08:39:45.203Z,51.70
2022-11-20T08:40:45.222Z,47.40
2022-11-20T08:41:45.149Z,49.50
2022-11-20T08:42:45.123Z,46.70
2022-11-20T08:45:38.939Z,46.60
2022-11-20T08:46:38.867Z,49.50
2022-11-20T08:47:38.786Z,52.40
2022-11-20T08:48:38.754Z,49.50
2022-11-20T08:49:39.094Z,50.90
2022-11-20T08:50:38.625Z,47.40
2022-11-20T08:51:38.631Z,51.60
2022-11-20T08:52:39.858Z,49.60
2022-11-20T08:53:38.416Z,47.50
2022-11-20T08:54:38.359Z,50.40
2022-11-20T08:55:38.296Z,48.70
2022-11-20T08:56:38.242Z,49.20
2022-11-20T08:57:38.259Z,53.80
2022-11-20T08:58:55.327Z,50.90
2022-11-20T09:00:04.330Z,47.10
2022-11-20T09:00:38.031Z,49.00
2022-11-20T09:01:37.934Z,55.90
2022-11-20T09:02:37.893Z,51.80
2022-11-20T09:03:37.831Z,50.30
2022-11-20T09:04:37.867Z,53.30
2022-11-20T09:05:37.703Z,53.00
2022-11-20T09:06:37.627Z,55.30
2022-11-20T09:07:37.622Z,53.50
2022-11-20T09:08:37.521Z,50.00
2022-11-20T09:09:37.502Z,53.00
2022-11-20T09:10:37.428Z,53.00
2022-11-20T09:11:37.404Z,55.50
2022-11-20T09:12:37.354Z,53.70
2022-11-20T09:13:37.279Z,53.60
2022-11-20T09:14:37.207Z,54.60
2022-11-20T09:15:37.238Z,53.70
2022-11-20T09:16:37.099Z,58.10
2022-11-20T09:17:37.065Z,57.80
2022-11-20T09:18:36.998Z,50.60
2022-11-20T09:19:36.928Z,59.30
2022-11-20T09:20:37.059Z,52.90
2022-11-20T09:21:36.954Z,53.40
2022-11-20T09:22:36.781Z,56.40
2022-11-20T09:23:36.690Z,50.70
2022-11-20T09:24:36.665Z,54.00
2022-11-20T09:25:36.580Z,50.60
2022-11-20T09:26:36.709Z,50.50
2022-11-20T09:27:36.464Z,57.00
2022-11-20T09:28:36.414Z,51.50
2022-11-20T09:29:36.352Z,53.30
2022-11-20T09:30:36.327Z,53.70
2022-11-20T09:31:36.679Z,65.00
2022-11-20T09:32:42.218Z,58.80
2022-11-20T09:33:42.185Z,53.50
2022-11-20T09:34:42.069Z,55.40
2022-11-20T09:35:42.048Z,55.70
2022-11-20T09:36:42.136Z,61.70
2022-11-20T09:37:41.969Z,64.50
2022-11-20T09:38:42.014Z,60.80
2022-11-20T09:39:41.851Z,62.70
2022-11-20T09:40:41.816Z,59.80
2022-11-20T09:41:41.770Z,56.70
2022-11-20T09:42:41.683Z,56.20
2022-11-20T09:44:47.535Z,58.40
2022-11-20T09:45:47.542Z,63.60
2022-11-20T09:46:47.582Z,56.30
2022-11-20T09:47:47.470Z,62.50
2022-11-20T09:48:47.399Z,65.20
2022-11-20T09:49:47.367Z,69.30
2022-11-20T09:50:47.361Z,63.70
2022-11-20T09:51:52.139Z,68.60
2022-11-20T09:52:52.198Z,61.40
2022-11-20T09:53:52.188Z,60.50
2022-11-20T09:54:52.109Z,59.90
2022-11-20T09:55:52.130Z,57.10
2022-11-20T09:56:52.115Z,58.40
2022-11-20T09:57:51.950Z,64.00
2022-11-20T09:58:51.909Z,70.70
2022-11-20T09:59:51.831Z,76.40
2022-11-20T10:00:51.899Z,79.30
2022-11-20T10:02:56.652Z,63.90
2022-11-20T10:03:56.687Z,71.50
2022-11-20T10:04:56.627Z,65.10
2022-11-20T10:05:56.607Z,72.20
2022-11-20T10:07:10.485Z,81.20
2022-11-20T10:07:56.674Z,72.10
2022-11-20T10:08:56.515Z,65.20
2022-11-20T10:09:56.451Z,66.10
2022-11-20T10:10:56.386Z,71.50
2022-11-20T10:12:02.281Z,68.50
2022-11-20T10:13:02.357Z,66.00
2022-11-20T10:14:02.319Z,62.20
2022-11-20T10:15:02.260Z,67.30
2022-11-20T10:16:02.641Z,69.30
2022-11-20T10:17:02.223Z,64.00
2022-11-20T10:18:02.152Z,63.70
2022-11-20T10:19:02.106Z,64.30
2022-11-20T10:20:02.066Z,67.70
2022-11-20T10:21:02.052Z,75.50
2022-11-20T10:22:01.972Z,80.50
2022-11-20T10:23:01.991Z,75.00
2022-11-20T10:24:01.934Z,74.70
2022-11-20T10:25:01.946Z,74.80
2022-11-20T10:26:01.997Z,80.80
2022-11-20T10:27:01.890Z,71.30
2022-11-20T10:28:01.852Z,70.00
2022-11-20T10:29:06.026Z,67.30
2022-11-20T10:30:01.751Z,68.50
2022-11-20T10:31:01.723Z,70.70
2022-11-20T10:32:01.760Z,66.00
2022-11-20T10:33:01.653Z,69.80
2022-11-20T10:34:12.664Z,70.50
2022-11-20T10:35:01.662Z,73.30
2022-11-20T10:36:01.550Z,67.10
2022-11-20T10:37:01.563Z,70.50
2022-11-20T10:38:01.589Z,61.40
2022-11-20T10:39:01.622Z,67.00
2022-11-20T10:40:01.415Z,55.40
2022-11-20T10:41:01.369Z,60.20
2022-11-20T10:42:01.324Z,65.70
2022-11-20T10:43:01.301Z,60.50
2022-11-20T10:44:01.352Z,52.40
2022-11-20T10:45:04.457Z,61.40
2022-11-20T10:46:01.194Z,57.60
2022-11-20T10:47:01.138Z,59.10
2022-11-20T10:48:01.072Z,65.40
2022-11-20T10:49:01.056Z,55.90
2022-11-20T10:50:01.149Z,59.10
2022-11-20T10:51:00.982Z,61.40
2022-11-20T10:52:00.912Z,56.30
2022-11-20T10:53:00.899Z,55.20
2022-11-20T10:54:00.864Z,59.80
2022-11-20T10:55:00.828Z,61.50
2022-11-20T10:56:00.926Z,57.10
2022-11-20T10:57:00.753Z,60.00
2022-11-20T10:58:00.729Z,57.70
2022-11-20T10:59:00.680Z,58.10
2022-11-20T11:00:00.621Z,57.10
2022-11-20T11:01:00.807Z,60.10
2022-11-20T11:02:03.308Z,57.40
2022-11-20T11:03:00.528Z,57.00
2022-11-20T11:04:00.505Z,59.90
2022-11-20T11:05:00.434Z,55.70
2022-11-20T11:06:00.398Z,58.20
2022-11-20T11:07:00.414Z,62.30
2022-11-20T11:08:00.436Z,60.90
2022-11-20T11:09:00.286Z,64.70
2022-11-20T11:10:00.220Z,61.90
2022-11-20T11:11:00.186Z,59.10
2022-11-20T11:12:05.727Z,53.50
2022-11-20T11:13:00.109Z,56.10
2022-11-20T11:14:00.170Z,51.90
2022-11-20T11:15:00.011Z,56.30
2022-11-20T11:15:59.949Z,58.80
2022-11-20T11:16:59.953Z,59.60
2022-11-20T11:17:59.890Z,55.50
2022-11-20T11:19:05.854Z,64.10
2022-11-20T11:20:05.833Z,60.70
2022-11-20T11:21:05.768Z,55.40
2022-11-20T11:23:11.772Z,59.80
2022-11-20T11:24:40.545Z,58.00
2022-11-20T11:25:11.624Z,55.00
2022-11-20T11:26:11.604Z,50.80
2022-11-20T11:27:16.497Z,54.30
2022-11-20T11:28:11.516Z,53.50
2022-11-20T11:29:11.463Z,52.20
2022-11-20T11:30:11.570Z,56.40
2022-11-20T11:31:11.372Z,52.30
2022-11-20T11:32:11.347Z,55.10
2022-11-20T11:33:11.328Z,60.30
2022-11-20T11:34:11.384Z,52.40
2022-11-20T11:35:11.212Z,51.10
2022-11-20T11:36:11.251Z,51.00
2022-11-20T11:37:11.175Z,54.30
2022-11-20T11:38:11.121Z,55.50
2022-11-20T11:39:11.053Z,52.90
2022-11-20T11:40:24.735Z,57.10
2022-11-20T11:41:11.014Z,50.30
2022-11-20T11:42:11.449Z,53.30
2022-11-20T11:43:11.001Z,49.20
2022-11-20T11:44:10.927Z,47.60
2022-11-20T11:45:10.994Z,52.10
2022-11-20T11:46:10.856Z,55.20
2022-11-20T11:47:10.794Z,50.00
2022-11-20T11:48:10.776Z,50.40
2022-11-20T11:49:10.727Z,49.50
2022-11-20T11:50:10.690Z,49.90
2022-11-20T11:51:10.782Z,51.00
2022-11-20T11:52:10.619Z,48.50
2022-11-20T11:53:10.570Z,53.60
2022-11-20T11:54:10.602Z,52.20
2022-11-20T11:55:11.891Z,52.40
2022-11-20T11:56:10.598Z,50.30
2022-11-20T11:57:10.458Z,50.70
2022-11-20T11:58:10.392Z,50.70
2022-11-20T11:59:10.347Z,53.30
2022-11-20T12:00:10.327Z,52.30
2022-11-20T12:01:10.273Z,50.10
2022-11-20T12:02:10.294Z,54.60
2022-11-20T12:03:10.203Z,52.50
2022-11-20T12:04:10.169Z,47.70
2022-11-20T12:05:10.158Z,48.70
2022-11-20T12:06:10.071Z,53.00
2022-11-20T12:07:38.963Z,51.70
2022-11-20T12:08:12.736Z,50.20
2022-11-20T12:09:09.953Z,52.10
2022-11-20T12:10:10.075Z,49.40
2022-11-20T12:11:09.874Z,52.80
2022-11-20T12:12:09.863Z,57.20
2022-11-20T12:13:09.810Z,61.30
2022-11-20T12:14:09.786Z,59.10
2022-11-20T12:15:13.761Z,55.40
2022-11-20T12:16:13.716Z,69.80
2022-11-20T12:17:13.706Z,94.50
2022-11-20T12:18:13.625Z,94.60
2022-11-20T12:19:13.628Z,76.60
2022-11-20T12:20:13.571Z,56.90
2022-11-20T12:21:13.571Z,72.90
2022-11-20T12:22:13.510Z,65.00
2022-11-20T12:23:13.503Z,59.80
2022-11-20T12:24:13.448Z,58.80
2022-11-20T12:25:13.496Z,60.00
2022-11-20T12:26:13.414Z,66.30
2022-11-20T12:27:13.385Z,74.90
2022-11-20T12:28:13.308Z,71.30
2022-11-20T12:29:13.296Z,56.30
2022-11-20T12:30:13.225Z,53.10
2022-11-20T12:31:13.318Z,54.10
2022-11-20T12:32:13.167Z,49.40
2022-11-20T12:33:13.143Z,53.80
2022-11-20T12:34:13.093Z,51.00
2022-11-20T12:35:13.087Z,51.80
2022-11-20T12:36:13.023Z,43.00
2022-11-20T12:37:13.017Z,53.50
2022-11-20T12:38:12.963Z,49.70
2022-11-20T12:39:13.041Z,47.10
2022-11-20T12:40:12.885Z,50.40
2022-11-20T12:41:12.868Z,47.10
2022-11-20T12:42:12.821Z,48.90
2022-11-20T12:43:13.711Z,45.20
2022-11-20T12:44:12.790Z,50.10
2022-11-20T12:45:12.777Z,44.30
2022-11-20T12:46:12.708Z,46.60
2022-11-20T12:47:12.674Z,49.50
2022-11-20T12:48:12.632Z,44.10
2022-11-20T12:49:12.586Z,43.60
2022-11-20T12:50:12.520Z,38.60
2022-11-20T12:51:16.090Z,37.50
2022-11-20T12:52:12.443Z,39.70
2022-11-20T12:53:12.438Z,36.40
2022-11-20T12:54:12.412Z,36.50
2022-11-20T12:55:12.368Z,36.90
2022-11-20T12:56:12.282Z,37.70
2022-11-20T12:57:12.269Z,37.70
2022-11-20T12:58:12.216Z,35.50
2022-11-20T12:59:12.187Z,32.80
2022-11-20T13:00:12.155Z,35.00
2022-11-20T13:01:12.165Z,32.80
2022-11-20T13:02:12.055Z,35.70
2022-11-20T13:03:12.070Z,35.60
2022-11-20T13:04:12.000Z,33.60